createdAt,value
2022-12-23T00:00:30.455Z,100198.16
2022-12-23T00:03:03.078Z,100189.47
2022-12-23T00:05:37.682Z,100191.19
2022-12-23T00:08:09.099Z,100198.22
2022-12-23T00:10:41.600Z,100195.66
2022-12-23T00:13:25.055Z,100200.91
2022-12-23T00:16:03.064Z,100200.88
2022-12-23T00:18:36.065Z,100204.41
2022-12-23T00:21:09.094Z,100198.28
2022-12-23T00:23:41.311Z,100200.88
2022-12-23T00:26:16.352Z,100195.66
2022-12-23T00:28:46.634Z,100200.09
2022-12-23T00:31:18.862Z,100194.84
2022-12-23T00:33:54.523Z,100193.03
2022-12-23T00:36:27.822Z,100193.75
2022-12-23T00:39:10.903Z,100196.25
2022-12-23T00:41:53.535Z,100201.47
2022-12-23T00:44:23.621Z,100216.25
2022-12-23T00:46:53.470Z,100214.38
2022-12-23T00:49:38.539Z,100218.56
2022-12-23T00:52:09.990Z,100213.03
2022-12-23T00:54:40.045Z,100215.41
2022-12-23T00:57:09.970Z,100228.38
2022-12-23T00:59:40.877Z,100225.69
2022-12-23T01:02:24.765Z,100220.56
2022-12-23T01:05:09.679Z,100227.56
2022-12-23T01:07:39.451Z,100228.47
2022-12-23T01:10:11.728Z,100237.28
2022-12-23T01:12:41.484Z,100248.72
2022-12-23T01:15:12.190Z,100242.66
2022-12-23T01:17:41.955Z,100237.44
2022-12-23T01:20:15.807Z,100241.91
2022-12-23T01:22:45.618Z,100239.41
2022-12-23T01:25:15.367Z,100232.47
2022-12-23T01:27:45.259Z,100240.34
2022-12-23T01:30:15.494Z,100238.63
2022-12-23T01:32:45.225Z,100248.22
2022-12-23T01:35:18.007Z,100255.31
2022-12-23T01:37:47.732Z,100251.75
2022-12-23T01:40:17.492Z,100248.28
2022-12-23T01:42:44.715Z,100260.56
2022-12-23T01:45:20.083Z,100250.13
2022-12-23T01:47:54.851Z,100244.00
2022-12-23T01:50:31.923Z,100244.06
2022-12-23T01:53:08.186Z,100247.59
2022-12-23T01:55:41.785Z,100263.31
2022-12-23T01:58:14.930Z,100266.81
2022-12-23T02:00:57.683Z,100284.31
2022-12-23T02:03:39.937Z,100293.91
2022-12-23T02:06:26.624Z,100290.41
2022-12-23T02:09:08.724Z,100285.03
2022-12-23T02:11:52.716Z,100291.13
2022-12-23T02:14:51.503Z,100301.56
2022-12-23T02:17:28.032Z,100298.03
2022-12-23T02:20:40.264Z,100300.66
2022-12-23T02:23:43.453Z,100311.13
2022-12-23T02:26:39.380Z,100312.03
2022-12-23T02:57:16.351Z,100322.75
2022-12-23T02:59:52.122Z,100320.63
2022-12-23T03:02:22.495Z,100333.63
2022-12-23T03:04:52.677Z,100336.13
2022-12-23T03:07:34.307Z,100332.47
2022-12-23T03:10:14.960Z,100335.00
2022-12-23T03:12:56.202Z,100341.03
2022-12-23T03:15:35.417Z,100356.63
2022-12-23T03:18:14.165Z,100356.53
2022-12-23T03:20:53.686Z,100352.88
2022-12-23T03:23:28.428Z,100366.78
2022-12-23T03:26:05.443Z,100364.00
2022-12-23T03:28:46.448Z,100369.22
2022-12-23T03:31:23.353Z,100370.91
2022-12-23T03:33:59.238Z,100374.38
2022-12-23T03:36:34.852Z,100375.16
2022-12-23T03:39:08.382Z,100365.47
2022-12-23T03:41:44.445Z,100365.41
2022-12-23T03:44:19.324Z,100368.00
2022-12-23T03:46:55.489Z,100379.31
2022-12-23T03:49:30.306Z,100378.41
2022-12-23T03:52:05.815Z,100369.59
2022-12-23T03:54:41.852Z,100369.59
2022-12-23T03:57:13.427Z,100371.34
2022-12-23T03:59:50.577Z,100368.78
2022-12-23T04:02:27.698Z,100376.69
2022-12-23T04:05:13.099Z,100374.84
2022-12-23T04:07:48.031Z,100384.44
2022-12-23T04:10:18.492Z,100387.84
2022-12-23T04:12:48.287Z,100391.25
2022-12-23T04:15:25.476Z,100393.84
2022-12-23T04:17:57.267Z,100398.16
2022-12-23T04:20:27.795Z,100399.03
2022-12-23T04:27:36.437Z,100396.16
2022-12-23T04:30:07.351Z,100396.16
2022-12-23T04:32:41.463Z,100398.75
2022-12-23T04:35:12.254Z,100398.78
2022-12-23T04:37:42.655Z,100404.09
2022-12-23T04:40:13.299Z,100403.25
2022-12-23T04:42:43.279Z,100390.09
2022-12-23T04:45:14.033Z,100391.06
2022-12-23T04:47:46.548Z,100396.31
2022-12-23T04:50:17.743Z,100402.44
2022-12-23T04:52:47.655Z,100404.97
2022-12-23T04:55:17.719Z,100399.75
2022-12-23T04:57:47.649Z,100407.56
2022-12-23T05:00:18.762Z,100403.94
2022-12-23T05:02:51.295Z,100413.38
2022-12-23T05:05:21.274Z,100418.63
2022-12-23T05:07:52.701Z,100422.03
2022-12-23T05:10:22.494Z,100422.84
2022-12-23T05:12:52.280Z,100418.47
2022-12-23T05:15:22.206Z,100420.13
2022-12-23T05:17:54.603Z,100418.38
2022-12-23T05:20:24.513Z,100418.34
2022-12-23T05:22:54.419Z,100413.13
2022-12-23T05:25:24.385Z,100421.00
2022-12-23T05:27:54.135Z,100415.84
2022-12-23T05:30:23.887Z,100415.00
2022-12-23T05:32:59.715Z,100421.16
2022-12-23T05:35:30.687Z,100416.69
2022-12-23T05:38:02.670Z,100414.09
2022-12-23T05:40:32.890Z,100400.19
2022-12-23T05:43:03.695Z,100404.50
2022-12-23T05:45:38.293Z,100412.44
2022-12-23T05:48:11.043Z,100409.75
2022-12-23T05:50:41.784Z,100412.34
2022-12-23T05:53:12.414Z,100421.94
2022-12-23T05:55:42.384Z,100418.34
2022-12-23T05:58:12.264Z,100437.47
2022-12-23T06:00:42.066Z,100434.69
2022-12-23T06:03:14.718Z,100436.31
2022-12-23T06:05:44.694Z,100435.41
2022-12-23T06:08:14.547Z,100427.44
2022-12-23T06:10:44.464Z,100428.28
2022-12-23T06:13:14.357Z,100431.72
2022-12-23T06:15:44.169Z,100436.16
2022-12-23T06:18:16.603Z,100428.38
2022-12-23T06:20:49.474Z,100431.06
2022-12-23T06:23:19.284Z,100433.78
2022-12-23T06:25:49.032Z,100426.81
2022-12-23T06:28:18.825Z,100422.47
2022-12-23T06:30:48.604Z,100429.63
2022-12-23T06:33:21.022Z,100446.22
2022-12-23T06:35:50.932Z,100447.88
2022-12-23T06:38:20.691Z,100457.38
2022-12-23T06:40:50.661Z,100459.88
2022-12-23T06:43:20.645Z,100466.81
2022-12-23T06:45:51.371Z,100475.47
2022-12-23T06:48:23.930Z,100477.09
2022-12-23T06:50:53.680Z,100478.66
2022-12-23T06:53:23.458Z,100480.31
2022-12-23T06:55:53.424Z,100488.09
2022-12-23T06:58:26.341Z,100493.31
2022-12-23T07:00:56.421Z,100490.69
2022-12-23T07:03:29.077Z,100502.13
2022-12-23T07:05:59.027Z,100504.75
2022-12-23T07:08:28.934Z,100515.31
2022-12-23T07:11:01.409Z,100525.72
2022-12-23T07:13:31.354Z,100524.81
2022-12-23T07:16:01.516Z,100521.31
2022-12-23T07:18:33.869Z,100533.56
2022-12-23T07:21:04.568Z,100525.66
2022-12-23T07:23:34.427Z,100526.56
2022-12-23T07:26:04.323Z,100532.59
2022-12-23T07:28:34.046Z,100530.00
2022-12-23T07:31:03.813Z,100542.28
2022-12-23T07:33:36.154Z,100542.19
2022-12-23T07:36:05.928Z,100537.81
2022-12-23T07:38:35.689Z,100543.09
2022-12-23T07:41:05.483Z,100538.00
2022-12-23T07:43:35.266Z,100541.50
2022-12-23T07:46:09.384Z,100544.22
2022-12-23T07:48:42.615Z,100540.75
2022-12-23T07:51:12.593Z,100526.88
2022-12-23T07:53:42.399Z,100515.63
2022-12-23T07:56:12.132Z,100515.81
2022-12-23T07:58:41.898Z,100521.13
2022-12-23T08:01:11.707Z,100517.72
2022-12-23T08:03:44.193Z,100526.53
2022-12-23T08:06:16.032Z,100530.13
2022-12-23T08:08:47.599Z,100534.53
2022-12-23T08:11:18.490Z,100539.81
2022-12-23T08:13:49.348Z,100531.91
2022-12-23T08:16:19.125Z,100536.19
2022-12-23T08:18:51.460Z,100528.28
2022-12-23T08:21:22.250Z,100532.59
2022-12-23T08:23:52.154Z,100519.50
2022-12-23T08:26:23.923Z,100509.09
2022-12-23T08:28:54.844Z,100503.00
2022-12-23T08:31:27.679Z,100495.22
2022-12-23T08:34:01.202Z,100490.94
2022-12-23T08:36:33.687Z,100496.28
2022-12-23T08:39:05.998Z,100501.63
2022-12-23T08:41:57.758Z,100508.75
2022-12-23T08:48:12.911Z,100509.78
2022-12-23T08:50:47.721Z,100509.81
2022-12-23T08:53:17.781Z,100506.38
2022-12-23T08:55:50.287Z,100507.28
2022-12-23T08:58:20.288Z,100505.63
2022-12-23T09:00:50.154Z,100507.47
2022-12-23T09:03:20.017Z,100508.38
2022-12-23T09:05:52.502Z,100518.03
2022-12-23T09:08:22.261Z,100518.88
2022-12-23T09:10:52.446Z,100514.53
2022-12-23T09:13:30.783Z,100509.38
2022-12-23T09:16:04.744Z,100504.13
2022-12-23T09:18:34.925Z,100508.53
2022-12-23T09:21:09.466Z,100508.59
2022-12-23T09:23:39.372Z,100498.09
2022-12-23T09:26:10.255Z,100498.09
2022-12-23T09:28:40.313Z,100502.56
2022-12-23T09:31:11.072Z,100502.56
2022-12-23T09:33:41.517Z,100492.97
2022-12-23T09:36:14.074Z,100505.25
2022-12-23T09:38:43.882Z,100494.81
2022-12-23T09:41:24.742Z,100485.59
2022-12-23T09:44:06.170Z,100479.22
2022-12-23T09:46:37.630Z,100476.09
2022-12-23T09:49:13.114Z,100467.59
2022-12-23T09:51:45.739Z,100473.28
2022-12-23T09:54:21.937Z,100467.38
2022-12-23T09:56:56.890Z,100470.97
2022-12-23T09:59:39.721Z,100461.34
2022-12-23T10:02:22.005Z,100460.47
2022-12-23T10:05:00.564Z,100465.72
2022-12-23T10:07:38.911Z,100464.78
2022-12-23T10:10:19.643Z,100464.78
2022-12-23T10:12:54.446Z,100465.59
2022-12-23T10:15:29.245Z,100458.56
2022-12-23T10:18:01.943Z,100468.28
2022-12-23T10:20:40.447Z,100462.13
2022-12-23T10:23:19.362Z,100450.75
2022-12-23T10:25:54.438Z,100444.59
2022-12-23T10:28:24.218Z,100454.28
2022-12-23T10:34:03.963Z,100467.41
2022-12-23T10:36:43.680Z,100458.75
2022-12-23T10:39:25.864Z,100446.53
2022-12-23T10:42:06.297Z,100443.00
2022-12-23T10:45:05.663Z,100438.69
2022-12-23T10:47:49.527Z,100429.88
2022-12-23T10:50:37.735Z,100440.38
2022-12-23T10:53:13.239Z,100435.94
2022-12-23T10:55:46.599Z,100430.66
2022-12-23T10:58:18.692Z,100432.41
2022-12-23T11:00:54.938Z,100427.16
2022-12-23T11:03:29.195Z,100431.59
2022-12-23T11:06:00.787Z,100432.72
2022-12-23T11:08:33.761Z,100433.03
2022-12-23T11:11:06.696Z,100418.19
2022-12-23T11:13:39.881Z,100420.00
2022-12-23T11:16:31.907Z,100419.13
2022-12-23T11:19:05.097Z,100411.22
2022-12-23T11:21:36.429Z,100412.94
2022-12-23T11:24:23.543Z,100399.69
2022-12-23T11:27:04.734Z,100397.75
2022-12-23T11:29:37.827Z,100385.28
2022-12-23T11:32:20.370Z,100375.47
2022-12-23T11:34:52.051Z,100386.78
2022-12-23T11:37:38.018Z,100377.94
2022-12-23T11:40:09.724Z,100381.44
2022-12-23T11:42:46.144Z,100380.41
2022-12-23T11:45:25.532Z,100380.31
2022-12-23T11:47:56.428Z,100365.31
2022-12-23T11:50:44.717Z,100360.50
2022-12-23T11:53:17.016Z,100356.75
2022-12-23T11:55:51.684Z,100353.13
2022-12-23T11:58:26.953Z,100347.78
2022-12-23T12:00:59.119Z,100332.91
2022-12-23T12:03:33.539Z,100321.50
2022-12-23T12:06:06.604Z,100315.28
2022-12-23T12:08:39.539Z,100315.03
2022-12-23T12:11:16.846Z,100313.91
2022-12-23T12:13:53.749Z,100312.63
2022-12-23T12:16:36.578Z,100321.34
2022-12-23T12:19:13.590Z,100312.44
2022-12-23T12:21:44.837Z,100312.53
2022-12-23T12:24:22.081Z,100313.50
2022-12-23T12:26:55.441Z,100309.19
2022-12-23T12:29:33.674Z,100318.97
2022-12-23T12:32:05.136Z,100307.81
2022-12-23T12:34:45.490Z,100307.16
2022-12-23T12:37:27.515Z,100318.78
2022-12-23T12:40:03.711Z,100308.38
2022-12-23T12:42:41.250Z,100304.16
2022-12-23T12:45:23.872Z,100296.22
2022-12-23T12:48:16.267Z,100289.94
2022-12-23T12:50:57.832Z,100289.00
2022-12-23T12:53:27.666Z,100284.59
2022-12-23T12:56:02.940Z,100276.75
2022-12-23T12:58:32.796Z,100278.47
2022-12-23T13:01:26.819Z,100274.94
2022-12-23T13:04:19.398Z,100273.25
2022-12-23T13:06:57.768Z,100267.13
2022-12-23T13:09:39.506Z,100272.47
2022-12-23T13:12:17.705Z,100265.47
2022-12-23T13:15:01.242Z,100273.28
2022-12-23T13:17:39.004Z,100265.22
2022-12-23T13:20:19.140Z,100261.59
2022-12-23T13:22:54.535Z,100262.38
2022-12-23T13:25:28.319Z,100268.47
2022-12-23T13:28:00.266Z,100264.19
2022-12-23T13:30:36.922Z,100258.19
2022-12-23T13:33:25.625Z,100255.69
2022-12-23T13:36:07.716Z,100260.13
2022-12-23T13:39:05.066Z,100247.94
2022-12-23T13:41:39.634Z,100248.09
2022-12-23T13:44:13.623Z,100241.13
2022-12-23T13:46:54.466Z,100248.94
2022-12-23T13:49:36.359Z,100240.97
2022-12-23T13:52:13.226Z,100240.06
2022-12-23T13:54:53.785Z,100233.94
2022-12-23T13:57:42.372Z,100241.72
2022-12-23T14:00:27.861Z,100234.59
2022-12-23T14:03:21.677Z,100230.13
2022-12-23T14:05:58.192Z,100233.47
2022-12-23T14:08:34.677Z,100221.00
2022-12-23T14:11:13.706Z,100215.63
2022-12-23T14:13:47.267Z,100219.88
2022-12-23T14:16:43.583Z,100210.13
2022-12-23T14:19:37.480Z,100202.91
2022-12-23T14:22:24.903Z,100198.31
2022-12-23T14:25:31.823Z,100202.53
2022-12-23T14:28:13.239Z,100192.75
2022-12-23T14:30:46.218Z,100189.16
2022-12-23T14:33:28.263Z,100191.59
2022-12-23T14:36:01.370Z,100187.97
2022-12-23T14:38:34.948Z,100189.72
2022-12-23T14:41:25.582Z,100188.75
2022-12-23T14:43:59.515Z,100193.91
2022-12-23T14:46:58.887Z,100192.13
2022-12-23T14:49:46.865Z,100199.91
2022-12-23T14:52:48.295Z,100183.25
2022-12-23T14:55:45.734Z,100186.69
2022-12-23T14:58:33.668Z,100191.03
2022-12-23T15:01:06.747Z,100184.75
2022-12-23T15:03:43.053Z,100189.16
2022-12-23T15:06:20.666Z,100189.09
2022-12-23T15:08:53.797Z,100190.84
2022-12-23T15:11:31.145Z,100186.38
2022-12-23T15:14:03.195Z,100185.50
2022-12-23T15:16:36.185Z,100192.44
2022-12-23T15:19:19.669Z,100188.88
2022-12-23T15:22:03.223Z,100184.50
2022-12-23T15:24:37.692Z,100176.56
2022-12-23T15:27:26.515Z,100171.34
2022-12-23T15:29:58.023Z,100172.13
2022-12-23T15:32:29.633Z,100166.88
2022-12-23T15:35:05.196Z,100171.25
2022-12-23T15:37:37.922Z,100169.47
2022-12-23T15:40:13.465Z,100176.44
2022-12-23T15:42:50.291Z,100166.78
2022-12-23T15:45:36.651Z,100158.84
2022-12-23T15:48:08.065Z,100162.31
2022-12-23T15:50:42.157Z,100163.97
2022-12-23T15:53:19.984Z,100158.75
2022-12-23T15:55:51.705Z,100161.34
2022-12-23T15:58:24.285Z,100156.94
2022-12-23T16:00:57.653Z,100159.56
2022-12-23T16:03:33.405Z,100153.44
2022-12-23T16:06:12.184Z,100153.41
2022-12-23T16:08:45.600Z,100146.34
2022-12-23T16:11:17.821Z,100152.47
2022-12-23T16:13:59.333Z,100147.22
2022-12-23T16:16:40.995Z,100148.97
2022-12-23T16:19:40.624Z,100145.41
2022-12-23T16:22:20.195Z,100142.72
2022-12-23T16:24:56.566Z,100148.78
2022-12-23T16:27:36.282Z,100140.88
2022-12-23T16:30:13.746Z,100137.38
2022-12-23T16:32:50.446Z,100136.44
2022-12-23T16:35:39.290Z,100144.28
2022-12-23T16:38:16.093Z,100140.69
2022-12-23T16:40:50.790Z,100147.59
2022-12-23T16:43:21.865Z,100142.25
2022-12-23T16:45:55.702Z,100141.41
2022-12-23T16:48:33.142Z,100136.06
2022-12-23T16:51:03.401Z,100143.81
2022-12-23T16:53:33.281Z,100134.13
2022-12-23T16:56:06.571Z,100139.38
2022-12-23T16:58:36.474Z,100131.53
2022-12-23T17:01:07.145Z,100133.22
2022-12-23T17:03:37.053Z,100141.97
2022-12-23T17:06:06.992Z,100146.25
2022-12-23T17:08:36.853Z,100137.56
2022-12-23T17:11:16.512Z,100149.84
2022-12-23T17:13:47.365Z,100146.38
2022-12-23T17:16:20.188Z,100142.00
2022-12-23T17:18:50.569Z,100149.09
2022-12-23T17:21:23.165Z,100144.69
2022-12-23T17:23:53.994Z,100142.91
2022-12-23T17:26:26.389Z,100152.47
2022-12-23T17:28:56.271Z,100148.13
2022-12-23T17:31:27.474Z,100151.59
2022-12-23T17:33:57.319Z,100145.41
2022-12-23T17:36:27.198Z,100144.59
2022-12-23T17:38:57.063Z,100135.84
2022-12-23T17:41:32.416Z,100138.41
2022-12-23T17:44:02.659Z,100140.94
2022-12-23T17:46:32.634Z,100140.88
2022-12-23T17:49:02.723Z,100137.38
2022-12-23T17:51:32.657Z,100139.03
2022-12-23T17:54:04.675Z,100133.88
2022-12-23T17:56:38.330Z,100144.25
2022-12-23T17:59:08.184Z,100138.94
2022-12-23T18:01:38.069Z,100142.34
2022-12-23T18:04:08.110Z,100144.88
2022-12-23T18:06:37.933Z,100147.47
2022-12-23T18:09:07.801Z,100148.34
2022-12-23T18:11:44.219Z,100147.47
2022-12-23T18:14:19.132Z,100150.94
2022-12-23T18:16:49.359Z,100140.50
2022-12-23T18:19:22.044Z,100149.03
2022-12-23T18:21:52.422Z,100144.59
2022-12-23T18:24:22.252Z,100153.22
2022-12-23T18:26:54.787Z,100145.44
2022-12-23T18:29:24.592Z,100153.28
2022-12-23T18:31:54.691Z,100144.53
2022-12-23T18:34:24.497Z,100145.47
2022-12-23T18:36:54.803Z,100147.31
2022-12-23T18:39:24.763Z,100150.00
2022-12-23T18:41:57.237Z,100150.00
2022-12-23T18:44:27.152Z,100150.81
2022-12-23T18:46:57.179Z,100145.53
2022-12-23T18:49:27.159Z,100147.22
2022-12-23T18:51:57.060Z,100142.81
2022-12-23T18:54:26.926Z,100143.72
2022-12-23T18:56:59.439Z,100145.47
2022-12-23T18:59:30.325Z,100146.25
2022-12-23T19:02:00.743Z,100141.00
2022-12-23T19:04:30.931Z,100145.31
2022-12-23T19:07:00.991Z,100134.81
2022-12-23T19:09:31.316Z,100128.63
2022-12-23T19:12:05.047Z,100134.72
2022-12-23T19:14:34.981Z,100136.41
2022-12-23T19:17:05.015Z,100133.75
2022-12-23T19:19:35.633Z,100140.72
2022-12-23T19:22:05.533Z,100149.38
2022-12-23T19:24:35.591Z,100142.41
2022-12-23T19:27:08.101Z,100145.03
2022-12-23T19:29:37.988Z,100144.91
2022-12-23T19:32:09.137Z,100151.94
2022-12-23T19:34:38.949Z,100144.91
2022-12-23T19:37:08.871Z,100147.59
2022-12-23T19:39:40.180Z,100146.72
2022-12-23T19:42:12.712Z,100150.16
2022-12-23T19:44:42.515Z,100148.41
2022-12-23T19:47:12.358Z,100153.72
2022-12-23T19:49:42.168Z,100153.78
2022-12-23T19:52:12.065Z,100167.75
2022-12-23T19:54:41.940Z,100158.09
2022-12-23T19:57:14.364Z,100162.56
2022-12-23T19:59:44.172Z,100159.91
2022-12-23T20:02:16.446Z,100165.13
2022-12-23T20:04:46.939Z,100158.94
2022-12-23T20:07:16.894Z,100159.81
2022-12-23T20:09:46.742Z,100168.56
2022-12-23T20:12:19.181Z,100159.78
2022-12-23T20:14:49.269Z,100164.06
2022-12-23T20:17:19.110Z,100163.13
2022-12-23T20:19:48.910Z,100170.06
2022-12-23T20:22:18.726Z,100166.56
2022-12-23T20:24:48.727Z,100166.50
2022-12-23T20:27:26.041Z,100164.78
2022-12-23T20:29:57.643Z,100167.47
2022-12-23T20:32:27.462Z,100173.56
2022-12-23T20:34:57.583Z,100171.06
2022-12-23T20:37:27.433Z,100168.44
2022-12-23T20:39:57.247Z,100164.06
2022-12-23T20:42:29.660Z,100170.19
2022-12-23T20:44:59.495Z,100165.72
2022-12-23T20:47:37.671Z,100164.88
2022-12-23T20:50:09.116Z,100167.47
2022-12-23T20:52:39.051Z,100176.19
2022-12-23T20:55:09.988Z,100172.69
2022-12-23T20:57:42.994Z,100178.78
2022-12-23T21:00:14.837Z,100178.78
2022-12-23T21:02:44.588Z,100177.19
2022-12-23T21:05:14.358Z,100177.31
2022-12-23T21:07:44.102Z,100180.81
2022-12-23T21:10:15.448Z,100172.97
2022-12-23T21:12:47.874Z,100175.50
2022-12-23T21:15:17.817Z,100181.63
2022-12-23T21:17:47.610Z,100178.13
2022-12-23T21:20:17.678Z,100175.47
2022-12-23T21:22:48.409Z,100180.72
2022-12-23T21:25:18.224Z,100180.56
2022-12-23T21:27:50.577Z,100177.06
2022-12-23T21:30:20.518Z,100178.72
2022-12-23T21:32:50.277Z,100178.63
2022-12-23T21:35:20.166Z,100189.91
2022-12-23T21:37:49.915Z,100189.06
2022-12-23T21:40:19.764Z,100184.72
2022-12-23T21:42:52.192Z,100189.97
2022-12-23T21:45:22.685Z,100189.97
2022-12-23T21:47:52.452Z,100184.81
2022-12-23T21:50:22.194Z,100184.88
2022-12-23T21:52:51.953Z,100191.75
2022-12-23T21:55:21.826Z,100189.97
2022-12-23T21:57:56.436Z,100192.56
2022-12-23T22:00:26.418Z,100197.75
2022-12-23T22:02:56.174Z,100203.88
2022-12-23T22:05:26.816Z,100207.34
2022-12-23T22:07:56.675Z,100203.03
2022-12-23T22:10:26.409Z,100205.63
2022-12-23T22:12:58.737Z,100201.25
2022-12-23T22:15:28.783Z,100210.84
2022-12-23T22:17:58.571Z,100207.34
2022-12-23T22:20:28.410Z,100213.47
2022-12-23T22:22:58.137Z,100217.00
2022-12-23T22:25:27.872Z,100219.63
2022-12-23T22:28:00.286Z,100223.91
2022-12-23T22:30:30.177Z,100223.06
2022-12-23T22:32:59.932Z,100221.28
2022-12-23T22:35:30.381Z,100226.56
2022-12-23T22:38:00.526Z,100230.97
2022-12-23T22:40:30.240Z,100231.00
2022-12-23T22:43:02.590Z,100228.47
2022-12-23T22:45:32.381Z,100231.09
2022-12-23T22:48:02.106Z,100223.31
2022-12-23T22:50:31.836Z,100229.47
2022-12-23T22:53:01.570Z,100230.38
2022-12-23T22:55:31.342Z,100235.59
2022-12-23T22:58:03.747Z,100233.88
2022-12-23T23:00:33.528Z,100247.00
2022-12-23T23:03:03.261Z,100238.22
2022-12-23T23:05:33.145Z,100240.84
2022-12-23T23:08:02.977Z,100253.94
2022-12-23T23:10:32.724Z,100258.28
2022-12-23T23:13:05.142Z,100261.78
2022-12-23T23:15:34.874Z,100260.06
2022-12-23T23:18:04.640Z,100265.34
2022-12-23T23:20:34.373Z,100256.63
2022-12-23T23:23:04.207Z,100261.88
2022-12-23T23:25:34.069Z,100262.75
2022-12-23T23:28:07.252Z,100269.75
2022-12-23T23:30:37.127Z,100270.59
2022-12-23T23:33:07.296Z,100266.25
2022-12-23T23:35:37.893Z,100267.09
2022-12-23T23:38:07.734Z,100258.38
2022-12-23T23:40:37.676Z,100258.38
2022-12-23T23:43:10.123Z,100262.75
2022-12-23T23:45:39.875Z,100270.66
2022-12-23T23:48:10.060Z,100256.75
2022-12-23T23:50:39.943Z,100253.16
2022-12-23T23:53:09.799Z,100259.28
2022-12-23T23:55:39.710Z,100265.44
2022-12-23T23:58:13.499Z,100266.31
